Time;durP1;ratioP1;P1;durP2;ratioP2;P2;SDS_P1;SDS_P2;PMS_P1;PMS_P2;Temp;Humidity;BMP_temperature;BMP_pressure;BME280_temperature;BME280_humidity;BME280_pressure;Samples;Min_cycle;Max_cycle;Signal;HPM_P1;HPM_P2
2023/12/23 00:00:12;;;;;;;1.25;1.15;;;;;;;15.99;47.34;91491.50;5066358;28;20071;-85
2023/12/23 00:02:37;;;;;;;2.88;1.17;;;;;;;15.99;47.13;91494.22;5024766;28;20513;-85
2023/12/23 00:05:03;;;;;;;1.70;1.05;;;;;;;15.94;47.05;91486.22;5053554;28;20116;-85
2023/12/23 00:07:29;;;;;;;1.33;0.90;;;;;;;15.94;47.03;91462.41;5028552;28;20040;-85
2023/12/23 00:09:57;;;;;;;1.20;1.00;;;;;;;15.95;47.01;91474.06;5038178;28;20035;-89
2023/12/23 00:12:22;;;;;;;0.80;0.73;;;;;;;15.96;47.39;91480.97;5033646;28;20519;-86
2023/12/23 00:14:48;;;;;;;1.52;1.00;;;;;;;15.94;47.64;91510.75;5042871;28;20119;-85
2023/12/23 00:17:13;;;;;;;1.10;0.95;;;;;;;15.92;47.34;91505.09;5051268;28;20032;-84
2023/12/23 00:19:39;;;;;;;1.35;0.80;;;;;;;15.93;47.42;91512.00;5035465;28;20113;-84
2023/12/23 00:22:05;;;;;;;1.58;0.98;;;;;;;15.97;47.44;91499.50;5025833;28;20211;-85
2023/12/23 00:24:31;;;;;;;1.00;0.90;;;;;;;15.98;47.04;91513.84;5036755;28;20595;-85
2023/12/23 00:26:57;;;;;;;1.33;1.02;;;;;;;15.96;47.12;91519.09;5045317;28;20040;-85
2023/12/23 00:29:24;;;;;;;1.17;0.95;;;;;;;15.97;47.59;91536.91;5048222;28;20048;-86
2023/12/23 00:31:49;;;;;;;1.05;0.70;;;;;;;15.96;47.58;91541.63;5019357;28;20514;-84
2023/12/23 00:34:15;;;;;;;1.38;0.95;;;;;;;15.98;47.07;91543.81;5028237;28;20049;-88
2023/12/23 00:36:40;;;;;;;0.90;0.80;;;;;;;16.03;47.72;91542.91;5030514;28;20048;-84
2023/12/23 00:39:06;;;;;;;1.48;0.80;;;;;;;16.00;47.12;91552.19;5045865;28;20040;-88
2023/12/23 00:41:32;;;;;;;0.80;0.80;;;;;;;16.01;47.11;91553.66;5044849;28;20044;-88
2023/12/23 00:43:57;;;;;;;1.83;1.13;;;;;;;15.99;47.34;91556.91;5012496;28;20040;-84
2023/12/23 00:46:22;;;;;;;2.42;0.98;;;;;;;16.00;47.26;91569.28;5064351;28;20128;-86
2023/12/23 00:48:48;;;;;;;1.58;1.05;;;;;;;16.00;47.00;91572.00;5028024;28;20037;-85
2023/12/23 00:51:13;;;;;;;0.90;0.80;;;;;;;16.00;46.91;91582.16;5025339;28;1168233;-85
2023/12/23 00:53:39;;;;;;;1.95;1.30;;;;;;;16.00;47.23;91585.63;5042726;28;20149;-85
2023/12/23 00:56:05;;;;;;;2.92;0.88;;;;;;;15.99;47.00;91605.97;5015165;28;20114;-85
2023/12/23 00:58:30;;;;;;;1.27;0.90;;;;;;;15.98;47.08;91579.97;5032699;28;20045;-84
2023/12/23 01:00:55;;;;;;;2.45;0.80;;;;;;;15.99;46.81;91577.97;5036493;28;20071;-85
2023/12/23 01:03:21;;;;;;;1.30;1.00;;;;;;;16.00;47.14;91599.25;5037096;28;20045;-84
2023/12/23 01:05:46;;;;;;;1.10;0.90;;;;;;;16.00;46.95;91603.97;5040799;28;20453;-85
2023/12/23 01:08:12;;;;;;;1.30;0.90;;;;;;;16.01;47.20;91627.22;5057811;28;20254;-84
2023/12/23 01:10:37;;;;;;;1.92;1.13;;;;;;;16.00;47.09;91636.66;5048146;28;20040;-86
2023/12/23 01:13:03;;;;;;;1.15;0.90;;;;;;;16.01;47.09;91622.50;5021150;28;20037;-89
2023/12/23 01:15:28;;;;;;;1.60;0.80;;;;;;;16.02;47.21;91625.97;5042680;28;20127;-84
2023/12/23 01:17:54;;;;;;;1.90;0.80;;;;;;;16.00;46.99;91609.41;5045126;28;20123;-85
2023/12/23 01:20:19;;;;;;;1.77;0.90;;;;;;;15.97;47.34;91624.13;5011874;28;20049;-84
2023/12/23 01:22:45;;;;;;;1.23;0.73;;;;;;;16.00;46.93;91625.78;5029009;28;20049;-85
2023/12/23 01:25:11;;;;;;;1.33;0.98;;;;;;;16.01;46.75;91624.50;5044855;28;20048;-84
2023/12/23 01:27:36;;;;;;;2.10;1.10;;;;;;;16.02;47.53;91634.13;5043181;28;20032;-85
2023/12/23 01:30:02;;;;;;;1.23;0.80;;;;;;;16.03;47.45;91641.03;5050034;28;20040;-87
2023/12/23 01:32:27;;;;;;;1.55;1.10;;;;;;;15.97;47.15;91665.72;5024096;28;20041;-85
2023/12/23 01:34:53;;;;;;;1.27;1.00;;;;;;;15.97;47.35;91676.63;5040396;28;20368;-85
2023/12/23 01:37:18;;;;;;;1.63;1.20;;;;;;;15.97;47.14;91692.97;5063939;28;20457;-84
2023/12/23 01:39:44;;;;;;;1.55;0.88;;;;;;;15.99;47.23;91690.44;5029015;28;20033;-84
2023/12/23 01:42:09;;;;;;;1.17;0.90;;;;;;;15.99;46.90;91690.44;5024801;28;20032;-84
2023/12/23 01:44:35;;;;;;;1.23;0.70;;;;;;;15.98;47.20;91690.97;5045001;28;20041;-84
2023/12/23 01:47:00;;;;;;;0.98;0.80;;;;;;;15.98;47.50;91699.88;5048297;28;20037;-89
2023/12/23 01:49:26;;;;;;;2.03;1.35;;;;;;;15.97;46.98;91692.25;5061226;28;20041;-84
2023/12/23 01:51:51;;;;;;;1.40;0.80;;;;;;;15.97;47.20;91690.25;5030572;28;20076;-84
2023/12/23 01:54:18;;;;;;;0.73;0.65;;;;;;;16.00;47.27;91710.25;5022594;28;20044;-84
2023/12/23 01:56:43;;;;;;;1.48;0.90;;;;;;;15.96;47.42;91732.38;5031703;28;20161;-87
2023/12/23 01:59:09;;;;;;;1.48;0.82;;;;;;;16.00;46.93;91726.59;5031259;28;20740;-88
2023/12/23 02:01:35;;;;;;;1.10;0.82;;;;;;;16.01;47.06;91728.78;5049165;28;20043;-89
2023/12/23 02:04:00;;;;;;;1.00;0.80;;;;;;;15.95;47.43;91743.81;5040932;28;20047;-86
2023/12/23 02:06:26;;;;;;;1.17;0.88;;;;;;;16.00;47.28;91737.50;5027096;28;20029;-85
2023/12/23 02:08:51;;;;;;;0.88;0.77;;;;;;;16.00;47.42;91753.84;5032309;28;20044;-85
2023/12/23 02:11:24;;;;;;;0.88;0.70;;;;;;;15.92;47.07;91753.78;5030913;28;20416;-84
2023/12/23 02:13:58;;;;;;;1.67;1.00;;;;;;;15.95;47.23;91741.84;5071494;28;20131;-86
2023/12/23 02:16:23;;;;;;;1.05;0.68;;;;;;;16.02;46.93;91751.34;5014704;28;20053;-84
2023/12/23 02:18:49;;;;;;;1.05;0.88;;;;;;;16.01;47.14;91753.31;5033551;28;20036;-87
2023/12/23 02:21:14;;;;;;;0.98;0.88;;;;;;;15.92;47.48;91758.50;5031320;28;20036;-89
2023/12/23 02:23:40;;;;;;;1.00;0.80;;;;;;;15.99;47.23;91736.03;5030368;28;20067;-85
2023/12/23 02:26:05;;;;;;;0.82;0.70;;;;;;;15.97;47.08;91744.03;5040511;28;20037;-86
2023/12/23 02:28:31;;;;;;;1.88;0.93;;;;;;;15.94;47.34;91758.72;5016231;28;20391;-85
2023/12/23 02:30:57;;;;;;;0.98;0.80;;;;;;;15.97;46.96;91752.94;5015427;28;20115;-87
2023/12/23 02:33:22;;;;;;;1.08;0.80;;;;;;;16.01;46.98;91750.59;5036230;28;20110;-89
2023/12/23 02:35:52;;;;;;;0.70;0.65;;;;;;;15.98;47.06;91762.56;5034214;28;20054;-84
2023/12/23 02:38:20;;;;;;;1.50;0.80;;;;;;;15.93;46.97;91771.59;5018696;28;20380;-86
2023/12/23 02:40:45;;;;;;;2.05;0.93;;;;;;;15.93;46.86;91771.59;5080637;28;20036;-87
2023/12/23 02:43:11;;;;;;;0.95;0.80;;;;;;;15.96;47.25;91775.25;5048046;28;20102;-84
2023/12/23 02:45:36;;;;;;;1.17;0.75;;;;;;;15.94;46.82;91788.69;5037328;28;20882;-85
2023/12/23 02:48:03;;;;;;;2.05;0.80;;;;;;;15.96;47.23;91795.06;5017197;28;20407;-84
2023/12/23 02:50:28;;;;;;;0.77;0.75;;;;;;;15.94;47.18;91805.78;5044133;28;20041;-86
2023/12/23 02:52:54;;;;;;;0.98;0.73;;;;;;;15.90;47.38;91794.47;5051264;28;20106;-85
2023/12/23 02:55:19;;;;;;;0.85;0.77;;;;;;;15.95;47.39;91806.50;5030616;28;20067;-85
2023/12/23 02:57:44;;;;;;;1.17;0.80;;;;;;;15.92;47.13;91775.59;5063650;28;20637;-86
2023/12/23 03:00:12;;;;;;;1.23;0.90;;;;;;;15.94;47.50;91805.03;5030413;28;20116;-85
2023/12/23 03:02:37;;;;;;;0.85;0.73;;;;;;;15.97;46.77;91814.88;5033638;28;20032;-84
2023/12/23 03:05:03;;;;;;;1.58;0.77;;;;;;;15.98;47.02;91811.63;5036146;28;20048;-85
2023/12/23 03:07:29;;;;;;;1.13;0.80;;;;;;;15.95;46.85;91814.69;5052129;28;20429;-89
2023/12/23 03:09:54;;;;;;;1.10;0.77;;;;;;;15.94;47.27;91819.41;5068171;28;20499;-87
2023/12/23 03:12:19;;;;;;;1.35;0.80;;;;;;;15.98;47.08;91808.16;5053598;28;20060;-87
2023/12/23 03:14:45;;;;;;;0.75;0.70;;;;;;;15.96;47.04;91821.59;5038978;28;20112;-86
2023/12/23 03:17:10;;;;;;;0.70;0.60;;;;;;;15.96;46.97;91832.50;5043708;28;20107;-84
2023/12/23 03:19:36;;;;;;;1.13;0.88;;;;;;;15.97;47.09;91828.50;5047563;28;20041;-90
2023/12/23 03:22:02;;;;;;;1.08;0.90;;;;;;;15.97;46.96;91836.69;5015994;28;20384;-84
2023/12/23 03:24:27;;;;;;;0.70;0.70;;;;;;;15.97;46.95;91840.13;5016624;28;20080;-85
2023/12/23 03:26:53;;;;;;;1.45;0.80;;;;;;;15.96;46.88;91860.47;5050514;28;20037;-88
2023/12/23 03:29:18;;;;;;;1.10;1.00;;;;;;;15.97;46.95;91872.09;5066039;28;20048;-85
2023/12/23 03:31:44;;;;;;;0.95;0.75;;;;;;;15.99;47.04;91847.78;5037141;28;20037;-84
2023/12/23 03:34:09;;;;;;;1.77;0.70;;;;;;;15.94;47.18;91854.81;5056746;28;20403;-84
2023/12/23 03:36:35;;;;;;;0.98;0.82;;;;;;;15.96;47.00;91874.09;5034061;28;20066;-84
2023/12/23 03:39:00;;;;;;;0.85;0.70;;;;;;;15.94;47.03;91873.91;5059624;28;20040;-84
2023/12/23 03:41:26;;;;;;;1.58;0.90;;;;;;;15.94;47.10;91882.06;5063054;28;20085;-88
2023/12/23 03:43:51;;;;;;;1.42;1.08;;;;;;;15.95;47.09;91878.09;5061843;28;20062;-84
2023/12/23 03:46:22;;;;;;;0.98;0.80;;;;;;;15.96;46.84;91887.00;5038445;28;20097;-84
2023/12/23 03:48:48;;;;;;;1.63;0.70;;;;;;;15.94;47.15;91890.25;5028365;28;20068;-84
2023/12/23 03:51:13;;;;;;;1.95;0.77;;;;;;;15.99;47.08;91896.84;5037440;28;20041;-84
2023/12/23 03:53:38;;;;;;;1.13;0.90;;;;;;;16.01;46.80;91903.22;5014305;28;20037;-86
2023/12/23 03:56:04;;;;;;;0.93;0.60;;;;;;;15.98;46.76;91917.91;4994062;28;20102;-85
2023/12/23 03:58:30;;;;;;;1.08;0.77;;;;;;;15.96;47.25;91931.34;4996031;28;20045;-84
2023/12/23 04:00:56;;;;;;;0.85;0.60;;;;;;;16.00;47.32;91917.38;5000646;28;20044;-88
2023/12/23 04:03:21;;;;;;;0.93;0.60;;;;;;;15.98;46.87;91925.34;5002866;28;20049;-86
2023/12/23 04:05:47;;;;;;;0.63;0.63;;;;;;;16.00;47.14;91944.63;4994054;28;20041;-86
2023/12/23 04:08:12;;;;;;;0.60;0.52;;;;;;;15.91;47.19;91948.53;5021209;28;20037;-85
2023/12/23 04:10:38;;;;;;;0.75;0.75;;;;;;;15.97;47.27;91954.59;4982489;28;20111;-84
2023/12/23 04:13:03;;;;;;;0.80;0.80;;;;;;;15.98;47.06;91963.50;4997036;28;20033;-85
2023/12/23 04:15:29;;;;;;;1.30;0.80;;;;;;;15.99;46.76;91973.16;5029549;28;20584;-85
2023/12/23 04:17:54;;;;;;;1.92;0.90;;;;;;;16.00;46.98;91956.28;5007380;28;20041;-84
2023/12/23 04:20:20;;;;;;;2.05;0.60;;;;;;;15.95;47.33;91965.31;5008386;28;20111;-85
2023/12/23 04:22:47;;;;;;;1.98;0.90;;;;;;;15.98;46.70;91971.69;4997255;28;20764;-85
2023/12/23 04:25:14;;;;;;;1.33;0.70;;;;;;;16.01;47.17;91984.25;5031598;28;20052;-88
2023/12/23 04:27:39;;;;;;;0.90;0.68;;;;;;;15.97;47.02;91992.03;4994942;28;20492;-85
2023/12/23 04:30:05;;;;;;;1.35;0.90;;;;;;;15.95;47.06;92000.72;4995809;28;20116;-89
2023/12/23 04:32:31;;;;;;;0.50;0.50;;;;;;;16.05;47.54;92020.81;5011359;28;20037;-84
2023/12/23 04:34:56;;;;;;;0.70;0.70;;;;;;;16.02;46.73;92002.78;5017236;28;20033;-86
2023/12/23 04:37:22;;;;;;;1.50;0.88;;;;;;;16.01;47.14;92000.63;4996887;28;20086;-87
2023/12/23 04:39:47;;;;;;;1.58;0.80;;;;;;;16.02;46.91;92010.25;4995891;28;20045;-84
2023/12/23 04:42:12;;;;;;;0.85;0.63;;;;;;;16.03;46.72;92019.88;4993665;28;20037;-84
2023/12/23 04:44:38;;;;;;;0.98;0.70;;;;;;;16.03;46.73;92014.41;4986773;28;20045;-85
2023/12/23 04:47:04;;;;;;;0.60;0.60;;;;;;;15.98;46.52;92010.56;4996493;28;20068;-86
2023/12/23 04:49:29;;;;;;;0.70;0.70;;;;;;;16.00;47.06;92023.69;4999049;28;20522;-85
2023/12/23 04:51:54;;;;;;;1.00;0.68;;;;;;;16.02;47.10;92030.03;5041693;28;20095;-85
2023/12/23 04:54:20;;;;;;;2.00;0.75;;;;;;;15.98;47.21;92020.75;4992652;28;20400;-90
2023/12/23 04:56:45;;;;;;;1.05;0.65;;;;;;;15.96;47.21;92024.00;5012597;28;20048;-84
2023/12/23 04:59:11;;;;;;;0.82;0.70;;;;;;;15.98;47.20;92034.38;5007753;28;20092;-84
2023/12/23 05:01:36;;;;;;;1.52;1.00;;;;;;;15.95;47.06;92021.81;5011336;28;20499;-85
2023/12/23 05:04:02;;;;;;;0.90;0.80;;;;;;;15.98;47.29;92029.66;4974251;28;20133;-84
2023/12/23 05:06:27;;;;;;;1.42;0.50;;;;;;;15.96;47.31;92015.81;4980962;28;20515;-84
2023/12/23 05:08:52;;;;;;;1.25;0.70;;;;;;;15.99;46.79;92020.22;4962127;28;20136;-83
2023/12/23 05:11:18;;;;;;;0.70;0.70;;;;;;;15.94;47.38;92031.97;4954437;28;20814;-85
2023/12/23 05:13:43;;;;;;;0.88;0.65;;;;;;;15.94;47.37;92034.69;4979522;28;20038;-86
2023/12/23 05:16:09;;;;;;;1.38;0.77;;;;;;;15.97;46.97;92050.00;4960650;28;20037;-84
2023/12/23 05:18:34;;;;;;;1.23;0.77;;;;;;;15.94;46.96;92059.22;4955604;28;20038;-86
2023/12/23 05:21:00;;;;;;;1.15;0.88;;;;;;;15.98;46.99;92070.53;4971468;28;20041;-86
2023/12/23 05:23:25;;;;;;;1.17;0.73;;;;;;;15.96;46.95;92066.88;4971158;28;20045;-88
2023/12/23 05:25:50;;;;;;;0.55;0.50;;;;;;;15.94;46.95;92074.84;4956466;28;20755;-84
2023/12/23 05:28:16;;;;;;;0.50;0.50;;;;;;;15.93;47.36;92062.47;4987736;28;21040;-84
2023/12/23 05:30:42;;;;;;;2.72;0.80;;;;;;;15.97;46.91;92065.63;4971358;28;20456;-84
2023/12/23 05:33:07;;;;;;;1.05;0.50;;;;;;;15.97;47.11;92051.97;4980724;28;20080;-84
2023/12/23 05:35:32;;;;;;;2.17;1.00;;;;;;;15.95;47.32;92057.97;5000831;28;20066;-86
2023/12/23 05:37:58;;;;;;;1.65;0.80;;;;;;;15.93;47.06;92044.13;5009446;28;20396;-87
2023/12/23 05:40:23;;;;;;;1.90;0.70;;;;;;;15.93;47.32;92049.56;5008394;28;20411;-84
2023/12/23 05:42:49;;;;;;;1.70;0.80;;;;;;;15.95;47.17;92043.59;5019071;28;20045;-84
2023/12/23 05:45:14;;;;;;;0.98;0.80;;;;;;;15.98;47.28;92037.09;5030926;28;20387;-85
2023/12/23 05:47:40;;;;;;;1.05;0.60;;;;;;;15.97;46.78;92030.19;4977111;28;20098;-84
2023/12/23 05:50:07;;;;;;;1.00;0.80;;;;;;;15.88;47.17;92031.34;5007095;28;20037;-87
2023/12/23 05:52:33;;;;;;;0.50;0.50;;;;;;;15.92;47.19;92050.84;5006264;28;20043;-87
2023/12/23 05:54:58;;;;;;;1.50;0.70;;;;;;;15.93;47.30;92055.03;5021676;28;20028;-84
2023/12/23 05:57:23;;;;;;;0.88;0.70;;;;;;;15.91;47.24;92056.81;5031779;28;20063;-85
2023/12/23 05:59:49;;;;;;;0.82;0.60;;;;;;;15.95;47.50;92066.13;5023003;28;20032;-88
2023/12/23 06:02:14;;;;;;;1.17;0.60;;;;;;;15.94;47.19;92051.03;5066871;28;20407;-84
2023/12/23 06:04:40;;;;;;;0.90;0.63;;;;;;;15.95;46.90;92062.69;5063946;28;20040;-84
2023/12/23 06:07:05;;;;;;;0.60;0.60;;;;;;;15.94;47.06;92059.22;5030686;28;20415;-87
2023/12/23 06:09:31;;;;;;;0.88;0.70;;;;;;;15.92;47.45;92071.91;5048090;28;20434;-84
2023/12/23 06:11:56;;;;;;;1.40;0.73;;;;;;;15.91;47.26;92073.91;5030687;28;20456;-87
2023/12/23 06:14:21;;;;;;;0.52;0.50;;;;;;;15.95;46.84;92073.59;5050491;28;20455;-88
2023/12/23 06:16:47;;;;;;;1.15;0.80;;;;;;;15.96;46.89;92075.78;5048285;28;20118;-88
2023/12/23 06:19:12;;;;;;;0.77;0.60;;;;;;;15.97;47.23;92076.50;5035267;28;20084;-85
2023/12/23 06:21:45;;;;;;;0.98;0.63;;;;;;;15.85;47.09;92076.00;5012323;28;20036;-88
2023/12/23 06:24:11;;;;;;;0.90;0.70;;;;;;;15.92;47.17;92097.16;5030741;28;20032;-84
2023/12/23 06:26:36;;;;;;;0.95;0.77;;;;;;;15.92;47.11;92080.06;5027341;28;20033;-86
2023/12/23 06:29:02;;;;;;;0.68;0.50;;;;;;;15.92;46.90;92088.25;5063938;28;20033;-85
2023/12/23 06:31:28;;;;;;;0.90;0.63;;;;;;;15.93;47.06;92092.44;5019145;28;20337;-85
2023/12/23 06:33:54;;;;;;;0.80;0.60;;;;;;;15.95;47.21;92081.75;5050883;28;20043;-86
2023/12/23 06:36:20;;;;;;;0.63;0.60;;;;;;;15.89;47.16;92095.50;5031649;28;20037;-87
2023/12/23 06:38:45;;;;;;;0.60;0.60;;;;;;;15.96;47.00;92107.75;5014777;28;20083;-84
2023/12/23 06:41:11;;;;;;;1.02;0.57;;;;;;;15.93;47.19;92104.09;5080250;28;20391;-85
2023/12/23 06:43:36;;;;;;;0.68;0.50;;;;;;;15.89;47.16;92111.84;5047234;28;20044;-85
2023/12/23 06:46:02;;;;;;;1.00;0.80;;;;;;;15.92;47.06;92116.25;5051038;28;20041;-85
2023/12/23 06:48:28;;;;;;;0.80;0.50;;;;;;;15.91;46.90;92111.31;5016019;28;20048;-86
2023/12/23 06:50:53;;;;;;;0.70;0.50;;;;;;;15.90;47.36;92107.13;5047638;28;20040;-85
2023/12/23 06:53:19;;;;;;;0.50;0.40;;;;;;;15.94;47.23;92121.91;5033271;28;20114;-89
2023/12/23 06:55:44;;;;;;;0.60;0.60;;;;;;;15.96;47.11;92100.31;5036793;28;20041;-84
2023/12/23 06:58:10;;;;;;;0.60;0.60;;;;;;;15.98;46.95;92108.69;5027944;28;20064;-84
2023/12/23 07:00:35;;;;;;;1.02;0.60;;;;;;;15.97;46.81;92103.78;5034113;28;20708;-85
2023/12/23 07:03:01;;;;;;;0.82;0.80;;;;;;;15.98;47.02;92107.97;5073774;28;20703;-84
2023/12/23 07:05:26;;;;;;;1.23;0.80;;;;;;;15.95;46.88;92098.09;5011744;28;20556;-84
2023/12/23 07:07:52;;;;;;;0.73;0.55;;;;;;;15.96;46.88;92096.84;5045713;28;20037;-85
2023/12/23 07:10:17;;;;;;;0.65;0.50;;;;;;;15.98;46.76;92100.53;5046605;28;20170;-84
2023/12/23 07:12:43;;;;;;;0.80;0.65;;;;;;;15.91;47.09;92114.03;5014528;28;20440;-84
2023/12/23 07:15:09;;;;;;;0.70;0.70;;;;;;;15.92;47.06;92124.41;5023585;28;20041;-85
2023/12/23 07:17:34;;;;;;;0.52;0.50;;;;;;;15.96;46.95;92132.28;5051354;28;20491;-88
2023/12/23 07:20:00;;;;;;;0.77;0.60;;;;;;;15.93;47.14;92119.69;5036275;28;20051;-85
2023/12/23 07:22:28;;;;;;;0.98;0.43;;;;;;;15.92;47.34;92129.88;5076810;28;20107;-86
2023/12/23 07:24:55;;;;;;;0.52;0.38;;;;;;;15.90;47.08;92140.56;5044504;28;20029;-84
2023/12/23 07:27:21;;;;;;;0.50;0.50;;;;;;;15.97;46.95;92150.09;5030480;28;20041;-87
2023/12/23 07:29:47;;;;;;;0.57;0.50;;;;;;;15.96;47.05;92140.47;5019216;28;20368;-86
2023/12/23 07:32:12;;;;;;;0.60;0.60;;;;;;;15.93;46.99;92139.50;5052213;28;20580;-85
2023/12/23 07:34:38;;;;;;;0.60;0.50;;;;;;;15.95;46.81;92136.25;5050406;28;20119;-86
2023/12/23 07:37:03;;;;;;;0.80;0.60;;;;;;;15.92;46.64;92148.94;5041363;28;20032;-85
2023/12/23 07:39:29;;;;;;;1.35;0.57;;;;;;;15.91;47.13;92125.69;5042827;28;20408;-84
2023/12/23 07:41:55;;;;;;;0.63;0.60;;;;;;;15.95;47.06;92128.81;5031170;28;20074;-89
2023/12/23 07:44:20;;;;;;;0.95;0.70;;;;;;;15.94;47.16;92118.44;5016080;28;20064;-85
2023/12/23 07:46:46;;;;;;;0.70;0.50;;;;;;;15.99;47.07;92120.34;5025161;28;20040;-85
2023/12/23 07:49:12;;;;;;;0.82;0.63;;;;;;;15.98;47.03;92121.59;5038995;28;20149;-85
2023/12/23 07:51:38;;;;;;;0.50;0.50;;;;;;;15.97;47.21;92120.13;5066617;28;20044;-85
2023/12/23 07:54:03;;;;;;;0.63;0.52;;;;;;;15.95;46.89;92111.72;5016961;28;20040;-84
2023/12/23 07:56:32;;;;;;;0.95;0.80;;;;;;;15.93;47.24;92114.97;5026602;28;20059;-85
2023/12/23 07:58:57;;;;;;;0.60;0.60;;;;;;;15.89;47.01;92125.47;5068473;28;20041;-87
2023/12/23 08:01:23;;;;;;;0.75;0.50;;;;;;;15.92;46.99;92121.69;5078428;28;20461;-84
2023/12/23 08:03:49;;;;;;;0.73;0.60;;;;;;;15.86;47.34;92120.31;5040786;28;20821;-85
2023/12/23 08:06:16;;;;;;;1.52;0.43;;;;;;;15.89;47.42;92113.81;5025808;28;20086;-84
2023/12/23 08:08:42;;;;;;;2.28;0.60;;;;;;;15.76;46.60;92115.31;5017792;28;20125;-85
2023/12/23 08:11:08;;;;;;;1.15;0.55;;;;;;;15.68;46.81;92102.84;5061229;28;20056;-85
2023/12/23 08:13:34;;;;;;;0.57;0.43;;;;;;;15.79;47.05;92115.53;5053062;28;20044;-87
2023/12/23 08:15:59;;;;;;;0.60;0.60;;;;;;;15.84;46.93;92103.75;5039789;28;20044;-87
2023/12/23 08:18:24;;;;;;;1.98;0.73;;;;;;;15.85;47.01;92100.50;5064226;28;20171;-84
2023/12/23 08:20:50;;;;;;;2.25;0.70;;;;;;;15.87;47.29;92102.72;5042238;28;20382;-85
2023/12/23 08:23:15;;;;;;;4.10;0.80;;;;;;;15.91;47.32;92098.44;5062462;28;20032;-86
2023/12/23 08:25:41;;;;;;;1.02;0.60;;;;;;;15.93;47.30;92095.19;5028618;28;20571;-86
2023/12/23 08:28:07;;;;;;;0.80;0.47;;;;;;;15.95;47.46;92095.38;5045693;28;20036;-86
2023/12/23 08:30:32;;;;;;;2.08;0.63;;;;;;;15.89;47.54;92097.47;5023314;28;20073;-85
2023/12/23 08:32:58;;;;;;;0.98;0.57;;;;;;;15.87;46.74;92100.00;5025456;28;20047;-85
2023/12/23 08:35:24;;;;;;;0.50;0.50;;;;;;;15.81;45.64;92093.91;5044644;28;20043;-88
2023/12/23 08:37:49;;;;;;;2.15;0.85;;;;;;;15.68;43.79;92089.94;5034780;28;20133;-90
2023/12/23 08:40:15;;;;;;;6.10;1.02;;;;;;;15.55;43.75;92095.38;5032824;28;20045;-85
2023/12/23 08:42:40;;;;;;;1.95;0.70;;;;;;;15.52;44.02;92099.16;5046593;28;20505;-90
2023/12/23 08:45:06;;;;;;;3.00;0.63;;;;;;;15.64;44.50;92081.34;5004778;28;20055;-87
2023/12/23 08:47:32;;;;;;;4.40;1.02;;;;;;;15.60;44.94;92080.94;5037615;28;20298;-87
2023/12/23 08:49:57;;;;;;;2.58;0.50;;;;;;;15.71;45.91;92069.84;5033875;28;20033;-87
2023/12/23 08:52:23;;;;;;;3.28;0.88;;;;;;;15.67;46.70;92058.53;5020302;28;20780;-88
2023/12/23 08:54:48;;;;;;;3.05;0.80;;;;;;;15.75;47.08;92058.63;4998705;28;20041;-86
2023/12/23 08:57:13;;;;;;;1.00;0.68;;;;;;;15.80;47.14;92062.50;5034627;28;20127;-87
2023/12/23 08:59:39;;;;;;;1.20;0.82;;;;;;;15.80;47.15;92057.78;5024612;28;20045;-87
2023/12/23 09:02:04;;;;;;;4.07;0.60;;;;;;;15.78;47.30;92052.13;5012535;28;20030;-86
2023/12/23 09:04:30;;;;;;;1.13;0.80;;;;;;;15.72;47.43;92037.88;5034125;28;20444;-86
2023/12/23 09:06:56;;;;;;;0.50;0.50;;;;;;;15.86;47.08;92044.75;5014959;28;20140;-87
2023/12/23 09:09:21;;;;;;;5.63;2.25;;;;;;;15.82;46.92;92043.63;5018480;28;20034;-89
2023/12/23 09:11:47;;;;;;;51.33;31.90;;;;;;;15.86;46.71;92030.41;5020856;28;20082;-88
2023/12/23 09:14:14;;;;;;;102.25;89.03;;;;;;;15.85;46.69;92029.66;5004959;28;20052;-89
2023/12/23 09:16:40;;;;;;;4.57;1.50;;;;;;;15.90;46.64;92022.63;5012306;28;20095;-87
2023/12/23 09:19:05;;;;;;;3.92;2.00;;;;;;;15.89;46.74;92013.00;5041097;28;20040;-87
2023/12/23 09:21:31;;;;;;;1.08;0.95;;;;;;;15.86;47.02;92016.78;5019002;28;20408;-89
2023/12/23 09:23:56;;;;;;;3.33;1.10;;;;;;;15.88;46.75;92016.97;5012236;28;20407;-90
2023/12/23 09:26:24;;;;;;;1.50;1.25;;;;;;;15.90;47.07;92017.19;5035795;28;20499;-87
2023/12/23 09:28:51;;;;;;;3.10;1.35;;;;;;;15.91;46.67;92016.66;5044846;28;20121;-87
2023/12/23 09:31:16;;;;;;;2.92;1.52;;;;;;;15.94;46.89;92009.44;5011472;28;20071;-91
2023/12/23 09:33:42;;;;;;;3.13;1.60;;;;;;;15.91;46.87;92005.75;5020009;28;20860;-88
2023/12/23 09:36:07;;;;;;;2.55;1.65;;;;;;;15.90;46.95;92014.47;5037370;28;20083;-89
2023/12/23 09:38:33;;;;;;;2.38;1.50;;;;;;;15.90;46.94;91982.50;5028343;28;20544;-87
2023/12/23 09:40:58;;;;;;;4.22;2.00;;;;;;;15.94;47.13;92001.25;5039340;28;20106;-86
2023/12/23 09:43:24;;;;;;;2.42;1.58;;;;;;;15.92;46.99;91990.88;5011988;28;20048;-85
2023/12/23 09:45:49;;;;;;;3.88;1.75;;;;;;;15.87;47.16;92013.53;5027679;28;20106;-85
2023/12/23 09:48:15;;;;;;;1.70;1.27;;;;;;;15.88;47.34;92006.81;5028215;28;20051;-85
2023/12/23 09:50:41;;;;;;;3.42;1.90;;;;;;;15.86;47.31;91997.72;5012054;28;20124;-85
2023/12/23 09:53:07;;;;;;;3.17;1.60;;;;;;;15.88;47.29;91997.91;5058828;28;20541;-85
2023/12/23 09:55:32;;;;;;;3.28;1.60;;;;;;;15.90;46.99;92006.28;5015116;28;20037;-85
2023/12/23 09:57:58;;;;;;;2.65;1.40;;;;;;;15.86;47.28;91998.44;5055157;28;20150;-84
2023/12/23 10:00:24;;;;;;;4.25;1.42;;;;;;;15.83;47.57;91998.75;5035796;28;20388;-86
2023/12/23 10:02:50;;;;;;;1.98;1.33;;;;;;;15.85;47.57;91972.44;5048256;28;20041;-85
2023/12/23 10:05:16;;;;;;;2.03;1.35;;;;;;;15.81;47.17;91982.19;5030353;28;20040;-85
2023/12/23 10:07:42;;;;;;;4.57;2.00;;;;;;;15.89;47.35;91985.75;5032734;28;20064;-85
2023/12/23 10:10:07;;;;;;;1.75;1.27;;;;;;;15.83;47.03;91988.59;5014629;28;20406;-86
2023/12/23 10:12:33;;;;;;;2.28;1.60;;;;;;;15.87;47.28;91980.81;5078827;28;20151;-84
2023/12/23 10:14:58;;;;;;;3.17;1.98;;;;;;;15.87;47.22;91963.75;5049098;28;20037;-84
2023/12/23 10:17:24;;;;;;;3.88;1.40;;;;;;;15.85;47.25;91982.63;5031157;28;20025;-84
2023/12/23 10:19:49;;;;;;;2.22;1.60;;;;;;;15.89;47.25;91974.84;5031557;28;20071;-86
2023/12/23 10:22:18;;;;;;;3.90;1.42;;;;;;;15.94;46.95;91982.91;5039650;28;20042;-85
2023/12/23 10:24:43;;;;;;;4.30;1.40;;;;;;;15.93;47.43;91970.53;5065309;28;20398;-84
2023/12/23 10:27:09;;;;;;;2.60;1.33;;;;;;;15.89;47.54;91974.84;5016593;28;20053;-84
2023/12/23 10:29:35;;;;;;;2.03;1.42;;;;;;;15.93;47.09;91964.38;5027981;28;20288;-84
2023/12/23 10:32:06;;;;;;;2.80;1.25;;;;;;;15.92;47.06;91965.63;5013348;28;20366;-84
2023/12/23 10:34:45;;;;;;;1.98;1.30;;;;;;;15.88;47.33;91967.94;5035913;28;20119;-86
2023/12/23 10:37:11;;;;;;;1.83;1.02;;;;;;;15.87;47.37;91967.19;5033742;28;20067;-87
2023/12/23 10:39:50;;;;;;;1.73;1.15;;;;;;;15.85;47.18;91977.91;5037674;28;20076;-91
2023/12/23 10:42:20;;;;;;;4.20;1.20;;;;;;;15.81;48.02;91972.03;5063929;28;20045;-89
2023/12/23 10:44:45;;;;;;;1.45;1.00;;;;;;;15.85;47.72;91964.28;5023544;28;20062;-85
2023/12/23 10:47:11;;;;;;;2.97;1.60;;;;;;;15.85;47.57;91969.72;5022011;28;20056;-84
2023/12/23 10:49:36;;;;;;;1.52;1.00;;;;;;;15.83;47.37;91968.78;5038915;28;20049;-85
2023/12/23 10:52:02;;;;;;;1.75;1.30;;;;;;;15.87;47.62;91963.75;5056824;28;20045;-85
2023/12/23 10:54:27;;;;;;;1.63;0.90;;;;;;;15.86;47.46;91962.28;5057895;28;20048;-85
2023/12/23 10:56:53;;;;;;;1.42;0.90;;;;;;;15.87;47.74;91963.75;4994725;28;20038;-84
2023/12/23 10:59:19;;;;;;;1.35;1.00;;;;;;;15.83;47.87;91974.97;4995855;28;20056;-88
2023/12/23 11:01:44;;;;;;;1.40;0.98;;;;;;;15.84;47.86;91970.25;5003093;28;20091;-87
2023/12/23 11:04:10;;;;;;;1.73;1.27;;;;;;;15.89;47.75;91966.69;5065569;28;20080;-85
2023/12/23 11:06:38;;;;;;;1.35;1.02;;;;;;;15.88;47.66;91960.50;4995446;28;20486;-85
2023/12/23 11:09:04;;;;;;;1.40;0.80;;;;;;;15.89;47.70;91936.69;5032531;28;20041;-86
2023/12/23 11:11:29;;;;;;;5.85;0.90;;;;;;;15.89;47.76;91953.06;5030785;28;20503;-84
2023/12/23 11:13:55;;;;;;;1.48;1.10;;;;;;;15.90;47.75;91944.34;4995569;28;20048;-86
2023/12/23 11:16:20;;;;;;;2.03;1.15;;;;;;;15.87;47.49;91939.94;4981136;28;20357;-84
2023/12/23 11:18:46;;;;;;;1.67;1.00;;;;;;;15.90;47.96;91941.63;5056325;28;20400;-85
2023/12/23 11:21:17;;;;;;;2.00;1.20;;;;;;;15.93;47.74;91943.28;5014089;28;20372;-86
2023/12/23 11:23:43;;;;;;;1.48;1.08;;;;;;;15.92;47.38;91936.38;5031350;28;20486;-84
2023/12/23 11:26:41;;;;;;;2.45;0.95;;;;;;;15.87;47.65;91956.31;5030049;28;20045;-85